sensor_id;sensor_type;location;lat;lon;timestamp;P1;durP1;ratioP1;P2;durP2;ratioP2
42096;SDS011;27754;45.414;11.084;2023-12-04T00:02:25;15.32;;;9.23;;
42096;SDS011;27754;45.414;11.084;2023-12-04T00:04:53;15.77;;;9.80;;
42096;SDS011;27754;45.414;11.084;2023-12-04T00:07:20;15.65;;;9.73;;
42096;SDS011;27754;45.414;11.084;2023-12-04T00:09:47;13.85;;;9.85;;
42096;SDS011;27754;45.414;11.084;2023-12-04T00:12:14;13.52;;;9.23;;
42096;SDS011;27754;45.414;11.084;2023-12-04T00:14:41;13.88;;;8.48;;
42096;SDS011;27754;45.414;11.084;2023-12-04T00:17:08;15.75;;;9.82;;
42096;SDS011;27754;45.414;11.084;2023-12-04T00:19:35;17.98;;;9.63;;
42096;SDS011;27754;45.414;11.084;2023-12-04T00:22:02;13.88;;;8.80;;
42096;SDS011;27754;45.414;11.084;2023-12-04T00:24:29;12.38;;;8.88;;
42096;SDS011;27754;45.414;11.084;2023-12-04T00:26:57;13.82;;;8.93;;
42096;SDS011;27754;45.414;11.084;2023-12-04T00:29:24;12.25;;;8.75;;
42096;SDS011;27754;45.414;11.084;2023-12-04T00:31:51;15.40;;;9.35;;
42096;SDS011;27754;45.414;11.084;2023-12-04T00:34:18;13.80;;;9.43;;
42096;SDS011;27754;45.414;11.084;2023-12-04T00:36:45;15.88;;;9.25;;
42096;SDS011;27754;45.414;11.084;2023-12-04T00:39:12;16.65;;;9.45;;
42096;SDS011;27754;45.414;11.084;2023-12-04T00:41:39;14.55;;;9.10;;
42096;SDS011;27754;45.414;11.084;2023-12-04T00:44:06;14.00;;;9.38;;
42096;SDS011;27754;45.414;11.084;2023-12-04T00:46:33;12.63;;;8.30;;
42096;SDS011;27754;45.414;11.084;2023-12-04T00:49:00;12.82;;;8.85;;
42096;SDS011;27754;45.414;11.084;2023-12-04T00:51:27;15.23;;;9.48;;
42096;SDS011;27754;45.414;11.084;2023-12-04T00:53:55;13.00;;;9.23;;
42096;SDS011;27754;45.414;11.084;2023-12-04T00:56:22;15.35;;;9.38;;
42096;SDS011;27754;45.414;11.084;2023-12-04T00:58:49;13.73;;;8.82;;
42096;SDS011;27754;45.414;11.084;2023-12-04T01:01:16;16.88;;;8.77;;
42096;SDS011;27754;45.414;11.084;2023-12-04T01:03:44;13.73;;;8.65;;
42096;SDS011;27754;45.414;11.084;2023-12-04T01:06:19;13.13;;;8.48;;
42096;SDS011;27754;45.414;11.084;2023-12-04T01:08:48;14.35;;;9.15;;
42096;SDS011;27754;45.414;11.084;2023-12-04T01:11:16;12.27;;;8.18;;
42096;SDS011;27754;45.414;11.084;2023-12-04T01:13:43;14.80;;;9.20;;
42096;SDS011;27754;45.414;11.084;2023-12-04T01:16:10;15.07;;;9.57;;
42096;SDS011;27754;45.414;11.084;2023-12-04T01:18:38;12.38;;;8.63;;
42096;SDS011;27754;45.414;11.084;2023-12-04T01:21:05;13.63;;;9.35;;
42096;SDS011;27754;45.414;11.084;2023-12-04T01:23:32;14.88;;;9.60;;
42096;SDS011;27754;45.414;11.084;2023-12-04T01:25:59;13.70;;;8.90;;
42096;SDS011;27754;45.414;11.084;2023-12-04T01:28:26;16.15;;;9.65;;
42096;SDS011;27754;45.414;11.084;2023-12-04T01:30:53;14.02;;;8.93;;
42096;SDS011;27754;45.414;11.084;2023-12-04T01:33:20;13.88;;;8.88;;
42096;SDS011;27754;45.414;11.084;2023-12-04T01:35:47;15.15;;;9.40;;
42096;SDS011;27754;45.414;11.084;2023-12-04T01:38:14;15.52;;;9.75;;
42096;SDS011;27754;45.414;11.084;2023-12-04T01:40:41;15.32;;;9.20;;
42096;SDS011;27754;45.414;11.084;2023-12-04T01:43:08;16.52;;;9.40;;
42096;SDS011;27754;45.414;11.084;2023-12-04T01:45:35;14.73;;;9.95;;
42096;SDS011;27754;45.414;11.084;2023-12-04T01:48:03;16.65;;;9.20;;
42096;SDS011;27754;45.414;11.084;2023-12-04T01:50:32;14.27;;;8.80;;
42096;SDS011;27754;45.414;11.084;2023-12-04T01:53:01;17.15;;;9.82;;
42096;SDS011;27754;45.414;11.084;2023-12-04T01:55:28;14.52;;;9.27;;
42096;SDS011;27754;45.414;11.084;2023-12-04T01:57:56;15.85;;;9.45;;
42096;SDS011;27754;45.414;11.084;2023-12-04T02:00:25;17.73;;;10.10;;
42096;SDS011;27754;45.414;11.084;2023-12-04T02:02:53;16.25;;;8.77;;
42096;SDS011;27754;45.414;11.084;2023-12-04T02:05:20;13.80;;;9.07;;
42096;SDS011;27754;45.414;11.084;2023-12-04T02:07:49;14.27;;;9.38;;
42096;SDS011;27754;45.414;11.084;2023-12-04T02:10:16;17.10;;;9.93;;
42096;SDS011;27754;45.414;11.084;2023-12-04T02:12:43;18.13;;;9.88;;
42096;SDS011;27754;45.414;11.084;2023-12-04T02:15:10;16.63;;;9.05;;
42096;SDS011;27754;45.414;11.084;2023-12-04T02:17:37;15.00;;;9.18;;
42096;SDS011;27754;45.414;11.084;2023-12-04T02:20:06;14.95;;;9.00;;
42096;SDS011;27754;45.414;11.084;2023-12-04T02:22:34;13.73;;;9.07;;
42096;SDS011;27754;45.414;11.084;2023-12-04T02:25:01;15.05;;;10.10;;
42096;SDS011;27754;45.414;11.084;2023-12-04T02:27:29;13.52;;;9.63;;
42096;SDS011;27754;45.414;11.084;2023-12-04T02:30:05;14.40;;;9.45;;
42096;SDS011;27754;45.414;11.084;2023-12-04T02:32:36;13.93;;;9.10;;
42096;SDS011;27754;45.414;11.084;2023-12-04T02:35:08;17.42;;;9.93;;
42096;SDS011;27754;45.414;11.084;2023-12-04T02:37:36;15.63;;;9.07;;
42096;SDS011;27754;45.414;11.084;2023-12-04T02:40:04;15.10;;;9.20;;
42096;SDS011;27754;45.414;11.084;2023-12-04T02:42:33;14.13;;;9.15;;
42096;SDS011;27754;45.414;11.084;2023-12-04T02:45:00;15.30;;;10.20;;
42096;SDS011;27754;45.414;11.084;2023-12-04T02:47:27;13.57;;;9.07;;
42096;SDS011;27754;45.414;11.084;2023-12-04T02:49:54;16.33;;;10.50;;
42096;SDS011;27754;45.414;11.084;2023-12-04T02:52:21;13.85;;;9.50;;
42096;SDS011;27754;45.414;11.084;2023-12-04T02:54:48;16.95;;;9.77;;
42096;SDS011;27754;45.414;11.084;2023-12-04T02:57:15;13.77;;;9.40;;
42096;SDS011;27754;45.414;11.084;2023-12-04T02:59:42;23.88;;;13.68;;
42096;SDS011;27754;45.414;11.084;2023-12-04T03:02:09;15.32;;;10.07;;
42096;SDS011;27754;45.414;11.084;2023-12-04T03:04:36;18.83;;;9.95;;
42096;SDS011;27754;45.414;11.084;2023-12-04T03:07:03;18.05;;;9.52;;
42096;SDS011;27754;45.414;11.084;2023-12-04T03:09:30;15.70;;;9.65;;
42096;SDS011;27754;45.414;11.084;2023-12-04T03:12:14;15.95;;;9.57;;
42096;SDS011;27754;45.414;11.084;2023-12-04T03:14:42;14.90;;;8.90;;
42096;SDS011;27754;45.414;11.084;2023-12-04T03:17:09;13.70;;;9.05;;
42096;SDS011;27754;45.414;11.084;2023-12-04T03:19:36;13.63;;;9.20;;
42096;SDS011;27754;45.414;11.084;2023-12-04T03:22:03;18.20;;;9.60;;
42096;SDS011;27754;45.414;11.084;2023-12-04T03:24:30;15.13;;;8.93;;
42096;SDS011;27754;45.414;11.084;2023-12-04T03:26:57;18.50;;;9.00;;
42096;SDS011;27754;45.414;11.084;2023-12-04T03:29:24;18.35;;;9.23;;
42096;SDS011;27754;45.414;11.084;2023-12-04T03:31:51;15.98;;;9.90;;
42096;SDS011;27754;45.414;11.084;2023-12-04T03:34:18;14.38;;;9.57;;
42096;SDS011;27754;45.414;11.084;2023-12-04T03:36:45;14.90;;;9.57;;
42096;SDS011;27754;45.414;11.084;2023-12-04T03:39:12;17.67;;;10.55;;
42096;SDS011;27754;45.414;11.084;2023-12-04T03:41:39;16.50;;;8.98;;
42096;SDS011;27754;45.414;11.084;2023-12-04T03:44:06;14.90;;;8.38;;
42096;SDS011;27754;45.414;11.084;2023-12-04T03:46:33;14.23;;;9.13;;
42096;SDS011;27754;45.414;11.084;2023-12-04T03:49:00;18.55;;;9.98;;
42096;SDS011;27754;45.414;11.084;2023-12-04T03:51:27;17.05;;;10.05;;
42096;SDS011;27754;45.414;11.084;2023-12-04T03:53:54;22.33;;;9.65;;
42096;SDS011;27754;45.414;11.084;2023-12-04T03:56:21;16.80;;;9.63;;
42096;SDS011;27754;45.414;11.084;2023-12-04T03:58:48;18.02;;;9.88;;
42096;SDS011;27754;45.414;11.084;2023-12-04T04:01:15;15.43;;;9.35;;
42096;SDS011;27754;45.414;11.084;2023-12-04T04:03:42;15.90;;;9.32;;
42096;SDS011;27754;45.414;11.084;2023-12-04T04:06:11;14.63;;;8.73;;
42096;SDS011;27754;45.414;11.084;2023-12-04T04:08:38;12.95;;;8.98;;
42096;SDS011;27754;45.414;11.084;2023-12-04T04:11:05;16.52;;;10.00;;
42096;SDS011;27754;45.414;11.084;2023-12-04T04:13:32;15.15;;;9.93;;
42096;SDS011;27754;45.414;11.084;2023-12-04T04:15:59;18.10;;;9.25;;
42096;SDS011;27754;45.414;11.084;2023-12-04T04:18:27;18.35;;;9.43;;
42096;SDS011;27754;45.414;11.084;2023-12-04T04:20:54;13.60;;;8.63;;
42096;SDS011;27754;45.414;11.084;2023-12-04T04:23:21;15.52;;;9.77;;
42096;SDS011;27754;45.414;11.084;2023-12-04T04:25:48;15.18;;;8.55;;
42096;SDS011;27754;45.414;11.084;2023-12-04T04:28:15;13.60;;;9.07;;
42096;SDS011;27754;45.414;11.084;2023-12-04T04:30:41;13.70;;;9.20;;
42096;SDS011;27754;45.414;11.084;2023-12-04T04:33:08;14.52;;;8.98;;
42096;SDS011;27754;45.414;11.084;2023-12-04T04:35:36;13.45;;;9.20;;
42096;SDS011;27754;45.414;11.084;2023-12-04T04:38:03;16.20;;;9.75;;
42096;SDS011;27754;45.414;11.084;2023-12-04T04:40:30;16.02;;;9.85;;
42096;SDS011;27754;45.414;11.084;2023-12-04T04:42:58;15.40;;;9.40;;
42096;SDS011;27754;45.414;11.084;2023-12-04T04:45:25;14.20;;;9.25;;
42096;SDS011;27754;45.414;11.084;2023-12-04T04:47:52;16.20;;;8.77;;
42096;SDS011;27754;45.414;11.084;2023-12-04T04:50:19;15.55;;;8.80;;
42096;SDS011;27754;45.414;11.084;2023-12-04T04:52:49;13.40;;;9.02;;
42096;SDS011;27754;45.414;11.084;2023-12-04T04:55:16;15.88;;;8.50;;
42096;SDS011;27754;45.414;11.084;2023-12-04T04:58:02;15.60;;;9.10;;
42096;SDS011;27754;45.414;11.084;2023-12-04T05:00:29;17.10;;;10.93;;
42096;SDS011;27754;45.414;11.084;2023-12-04T05:02:56;16.75;;;9.30;;
42096;SDS011;27754;45.414;11.084;2023-12-04T05:05:23;15.55;;;9.38;;
42096;SDS011;27754;45.414;11.084;2023-12-04T05:07:50;16.15;;;9.00;;
42096;SDS011;27754;45.414;11.084;2023-12-04T05:10:17;15.15;;;9.43;;
42096;SDS011;27754;45.414;11.084;2023-12-04T05:12:45;17.73;;;10.15;;
42096;SDS011;27754;45.414;11.084;2023-12-04T05:15:12;16.60;;;9.52;;
42096;SDS011;27754;45.414;11.084;2023-12-04T05:17:39;18.73;;;10.57;;
42096;SDS011;27754;45.414;11.084;2023-12-04T05:20:07;16.63;;;9.55;;
42096;SDS011;27754;45.414;11.084;2023-12-04T05:22:35;15.73;;;9.63;;
42096;SDS011;27754;45.414;11.084;2023-12-04T05:25:02;16.30;;;10.10;;
42096;SDS011;27754;45.414;11.084;2023-12-04T05:27:29;17.63;;;9.43;;
42096;SDS011;27754;45.414;11.084;2023-12-04T05:29:56;19.90;;;10.15;;
42096;SDS011;27754;45.414;11.084;2023-12-04T05:32:23;17.60;;;10.10;;
42096;SDS011;27754;45.414;11.084;2023-12-04T05:34:50;19.73;;;10.13;;
42096;SDS011;27754;45.414;11.084;2023-12-04T05:37:17;18.15;;;10.90;;
42096;SDS011;27754;45.414;11.084;2023-12-04T05:39:44;18.95;;;11.77;;
42096;SDS011;27754;45.414;11.084;2023-12-04T05:42:11;17.02;;;10.35;;
42096;SDS011;27754;45.414;11.084;2023-12-04T05:44:38;17.65;;;10.85;;
42096;SDS011;27754;45.414;11.084;2023-12-04T05:47:05;20.25;;;10.50;;
42096;SDS011;27754;45.414;11.084;2023-12-04T05:49:34;16.17;;;10.55;;
42096;SDS011;27754;45.414;11.084;2023-12-04T05:52:01;17.58;;;10.48;;
42096;SDS011;27754;45.414;11.084;2023-12-04T05:54:29;17.67;;;9.80;;
42096;SDS011;27754;45.414;11.084;2023-12-04T05:56:56;15.40;;;9.63;;
42096;SDS011;27754;45.414;11.084;2023-12-04T05:59:23;17.30;;;10.18;;
42096;SDS011;27754;45.414;11.084;2023-12-04T06:01:50;16.63;;;9.80;;
42096;SDS011;27754;45.414;11.084;2023-12-04T06:04:17;19.33;;;9.85;;
42096;SDS011;27754;45.414;11.084;2023-12-04T06:06:44;21.80;;;10.63;;
42096;SDS011;27754;45.414;11.084;2023-12-04T06:09:11;21.88;;;10.05;;
42096;SDS011;27754;45.414;11.084;2023-12-04T06:11:38;17.98;;;10.52;;
42096;SDS011;27754;45.414;11.084;2023-12-04T06:14:05;13.43;;;9.90;;
42096;SDS011;27754;45.414;11.084;2023-12-04T06:16:33;16.15;;;9.60;;
42096;SDS011;27754;45.414;11.084;2023-12-04T06:19:00;20.35;;;10.23;;
42096;SDS011;27754;45.414;11.084;2023-12-04T06:21:27;28.08;;;14.32;;
42096;SDS011;27754;45.414;11.084;2023-12-04T06:23:54;18.58;;;11.00;;
42096;SDS011;27754;45.414;11.084;2023-12-04T06:26:22;24.45;;;12.75;;
42096;SDS011;27754;45.414;11.084;2023-12-04T06:28:49;21.13;;;12.82;;
42096;SDS011;27754;45.414;11.084;2023-12-04T06:31:17;22.90;;;11.93;;
42096;SDS011;27754;45.414;11.084;2023-12-04T06:33:44;21.10;;;11.77;;
42096;SDS011;27754;45.414;11.084;2023-12-04T06:36:11;22.40;;;11.05;;
42096;SDS011;27754;45.414;11.084;2023-12-04T06:38:39;18.88;;;10.60;;
42096;SDS011;27754;45.414;11.084;2023-12-04T06:41:07;16.98;;;10.80;;
42096;SDS011;27754;45.414;11.084;2023-12-04T06:43:35;21.10;;;12.40;;
42096;SDS011;27754;45.414;11.084;2023-12-04T06:46:02;26.55;;;11.88;;
42096;SDS011;27754;45.414;11.084;2023-12-04T06:48:30;21.27;;;12.90;;
42096;SDS011;27754;45.414;11.084;2023-12-04T06:50:58;24.08;;;13.90;;
42096;SDS011;27754;45.414;11.084;2023-12-04T06:53:25;21.15;;;12.13;;
42096;SDS011;27754;45.414;11.084;2023-12-04T06:55:52;19.67;;;12.48;;
42096;SDS011;27754;45.414;11.084;2023-12-04T06:58:19;19.00;;;11.25;;
42096;SDS011;27754;45.414;11.084;2023-12-04T07:00:46;16.95;;;10.73;;
42096;SDS011;27754;45.414;11.084;2023-12-04T07:03:14;16.90;;;10.02;;
42096;SDS011;27754;45.414;11.084;2023-12-04T07:05:41;19.98;;;11.18;;
42096;SDS011;27754;45.414;11.084;2023-12-04T07:08:08;19.90;;;11.85;;
42096;SDS011;27754;45.414;11.084;2023-12-04T07:10:36;20.38;;;11.55;;
42096;SDS011;27754;45.414;11.084;2023-12-04T07:13:03;17.00;;;10.80;;
42096;SDS011;27754;45.414;11.084;2023-12-04T07:15:30;20.35;;;11.75;;
42096;SDS011;27754;45.414;11.084;2023-12-04T07:17:57;22.33;;;11.13;;
42096;SDS011;27754;45.414;11.084;2023-12-04T07:20:24;25.00;;;12.27;;
42096;SDS011;27754;45.414;11.084;2023-12-04T07:22:51;19.33;;;10.75;;
42096;SDS011;27754;45.414;11.084;2023-12-04T07:25:18;19.10;;;11.75;;
42096;SDS011;27754;45.414;11.084;2023-12-04T07:27:45;20.98;;;12.05;;
42096;SDS011;27754;45.414;11.084;2023-12-04T07:30:13;21.65;;;12.80;;
42096;SDS011;27754;45.414;11.084;2023-12-04T07:32:44;18.45;;;11.60;;
42096;SDS011;27754;45.414;11.084;2023-12-04T07:35:12;20.15;;;12.13;;
42096;SDS011;27754;45.414;11.084;2023-12-04T07:37:39;20.17;;;11.45;;
42096;SDS011;27754;45.414;11.084;2023-12-04T07:40:06;22.55;;;11.40;;
42096;SDS011;27754;45.414;11.084;2023-12-04T07:42:35;23.00;;;13.60;;
42096;SDS011;27754;45.414;11.084;2023-12-04T07:45:02;30.05;;;14.10;;
42096;SDS011;27754;45.414;11.084;2023-12-04T07:47:30;25.77;;;12.73;;
42096;SDS011;27754;45.414;11.084;2023-12-04T07:49:57;25.10;;;11.32;;
42096;SDS011;27754;45.414;11.084;2023-12-04T07:52:24;18.70;;;10.82;;
42096;SDS011;27754;45.414;11.084;2023-12-04T07:54:51;20.13;;;11.35;;
42096;SDS011;27754;45.414;11.084;2023-12-04T07:57:18;21.00;;;10.18;;
42096;SDS011;27754;45.414;11.084;2023-12-04T07:59:45;16.63;;;10.35;;
42096;SDS011;27754;45.414;11.084;2023-12-04T08:02:17;20.67;;;11.45;;
42096;SDS011;27754;45.414;11.084;2023-12-04T08:04:43;16.77;;;11.30;;
42096;SDS011;27754;45.414;11.084;2023-12-04T08:07:11;21.77;;;12.38;;
42096;SDS011;27754;45.414;11.084;2023-12-04T08:09:38;21.58;;;12.40;;
42096;SDS011;27754;45.414;11.084;2023-12-04T08:12:05;20.98;;;12.85;;
42096;SDS011;27754;45.414;11.084;2023-12-04T08:14:33;27.30;;;13.77;;
42096;SDS011;27754;45.414;11.084;2023-12-04T08:17:00;36.08;;;19.42;;
42096;SDS011;27754;45.414;11.084;2023-12-04T08:19:27;46.72;;;28.70;;
42096;SDS011;27754;45.414;11.084;2023-12-04T08:21:54;37.20;;;21.95;;
42096;SDS011;27754;45.414;11.084;2023-12-04T08:24:21;32.63;;;17.58;;
42096;SDS011;27754;45.414;11.084;2023-12-04T08:26:48;47.50;;;27.60;;
42096;SDS011;27754;45.414;11.084;2023-12-04T08:29:17;48.35;;;25.65;;
42096;SDS011;27754;45.414;11.084;2023-12-04T08:31:44;38.40;;;22.23;;
42096;SDS011;27754;45.414;11.084;2023-12-04T08:34:11;22.75;;;15.13;;
42096;SDS011;27754;45.414;11.084;2023-12-04T08:36:38;25.95;;;14.85;;
42096;SDS011;27754;45.414;11.084;2023-12-04T08:39:12;25.42;;;15.85;;
42096;SDS011;27754;45.414;11.084;2023-12-04T08:41:39;26.75;;;15.30;;
42096;SDS011;27754;45.414;11.084;2023-12-04T08:44:16;26.02;;;14.85;;
42096;SDS011;27754;45.414;11.084;2023-12-04T08:46:44;30.25;;;15.82;;
42096;SDS011;27754;45.414;11.084;2023-12-04T08:49:11;22.52;;;13.70;;
42096;SDS011;27754;45.414;11.084;2023-12-04T08:51:38;24.05;;;14.98;;
42096;SDS011;27754;45.414;11.084;2023-12-04T08:54:06;20.08;;;13.18;;
42096;SDS011;27754;45.414;11.084;2023-12-04T08:56:36;45.25;;;19.83;;
42096;SDS011;27754;45.414;11.084;2023-12-04T08:59:03;21.60;;;13.05;;
42096;SDS011;27754;45.414;11.084;2023-12-04T09:01:30;21.20;;;12.82;;
42096;SDS011;27754;45.414;11.084;2023-12-04T09:03:58;27.30;;;13.15;;
42096;SDS011;27754;45.414;11.084;2023-12-04T09:06:26;24.00;;;13.50;;
42096;SDS011;27754;45.414;11.084;2023-12-04T09:09:12;25.50;;;13.65;;
42096;SDS011;27754;45.414;11.084;2023-12-04T09:11:42;20.85;;;12.60;;
42096;SDS011;27754;45.414;11.084;2023-12-04T09:14:10;21.17;;;11.38;;
42096;SDS011;27754;45.414;11.084;2023-12-04T09:16:37;23.38;;;13.57;;
42096;SDS011;27754;45.414;11.084;2023-12-04T09:19:04;24.33;;;13.32;;
42096;SDS011;27754;45.414;11.084;2023-12-04T09:21:32;21.80;;;12.50;;
42096;SDS011;27754;45.414;11.084;2023-12-04T09:23:59;29.52;;;13.48;;
42096;SDS011;27754;45.414;11.084;2023-12-04T09:26:26;29.67;;;16.55;;
42096;SDS011;27754;45.414;11.084;2023-12-04T09:28:53;32.17;;;17.23;;
42096;SDS011;27754;45.414;11.084;2023-12-04T09:31:20;26.63;;;13.63;;
42096;SDS011;27754;45.414;11.084;2023-12-04T09:33:47;16.58;;;11.93;;
42096;SDS011;27754;45.414;11.084;2023-12-04T09:36:14;19.70;;;12.00;;
42096;SDS011;27754;45.414;11.084;2023-12-04T09:38:42;29.02;;;12.18;;
42096;SDS011;27754;45.414;11.084;2023-12-04T09:41:10;17.77;;;12.25;;
42096;SDS011;27754;45.414;11.084;2023-12-04T09:43:38;22.65;;;11.93;;
42096;SDS011;27754;45.414;11.084;2023-12-04T09:46:08;18.27;;;11.95;;
42096;SDS011;27754;45.414;11.084;2023-12-04T09:48:36;26.90;;;11.60;;
42096;SDS011;27754;45.414;11.084;2023-12-04T09:51:04;20.48;;;11.38;;
42096;SDS011;27754;45.414;11.084;2023-12-04T09:53:32;21.02;;;11.77;;
42096;SDS011;27754;45.414;11.084;2023-12-04T09:56:02;18.30;;;11.73;;
42096;SDS011;27754;45.414;11.084;2023-12-04T09:58:30;18.45;;;11.48;;
42096;SDS011;27754;45.414;11.084;2023-12-04T10:00:59;24.08;;;13.48;;
42096;SDS011;27754;45.414;11.084;2023-12-04T10:03:28;22.63;;;12.90;;
42096;SDS011;27754;45.414;11.084;2023-12-04T10:05:57;20.60;;;12.27;;
42096;SDS011;27754;45.414;11.084;2023-12-04T10:08:24;22.60;;;13.15;;
42096;SDS011;27754;45.414;11.084;2023-12-04T10:10:51;21.90;;;12.88;;
42096;SDS011;27754;45.414;11.084;2023-12-04T10:13:18;20.15;;;14.18;;
42096;SDS011;27754;45.414;11.084;2023-12-04T10:16:05;26.92;;;17.30;;
42096;SDS011;27754;45.414;11.084;2023-12-04T10:18:33;28.08;;;18.63;;
42096;SDS011;27754;45.414;11.084;2023-12-04T10:21:00;31.38;;;20.98;;
42096;SDS011;27754;45.414;11.084;2023-12-04T10:23:38;29.73;;;17.67;;
42096;SDS011;27754;45.414;11.084;2023-12-04T10:26:09;31.57;;;20.37;;
42096;SDS011;27754;45.414;11.084;2023-12-04T10:28:58;29.00;;;19.58;;
42096;SDS011;27754;45.414;11.084;2023-12-04T10:31:26;29.33;;;16.92;;
42096;SDS011;27754;45.414;11.084;2023-12-04T10:33:57;22.40;;;12.77;;
42096;SDS011;27754;45.414;11.084;2023-12-04T10:36:25;21.02;;;12.75;;
42096;SDS011;27754;45.414;11.084;2023-12-04T10:39:01;21.00;;;13.57;;
42096;SDS011;27754;45.414;11.084;2023-12-04T10:41:31;22.58;;;13.38;;
42096;SDS011;27754;45.414;11.084;2023-12-04T10:43:58;26.40;;;16.63;;
42096;SDS011;27754;45.414;11.084;2023-12-04T10:46:36;28.50;;;16.63;;
42096;SDS011;27754;45.414;11.084;2023-12-04T10:49:04;27.40;;;16.77;;
42096;SDS011;27754;45.414;11.084;2023-12-04T10:51:32;20.67;;;13.93;;
42096;SDS011;27754;45.414;11.084;2023-12-04T10:54:01;21.95;;;14.63;;
42096;SDS011;27754;45.414;11.084;2023-12-04T10:56:33;28.88;;;14.60;;
42096;SDS011;27754;45.414;11.084;2023-12-04T10:59:10;21.55;;;14.48;;
42096;SDS011;27754;45.414;11.084;2023-12-04T11:01:39;23.33;;;13.65;;
42096;SDS011;27754;45.414;11.084;2023-12-04T11:04:13;27.20;;;16.33;;
42096;SDS011;27754;45.414;11.084;2023-12-04T11:06:45;26.55;;;13.38;;
42096;SDS011;27754;45.414;11.084;2023-12-04T11:09:17;26.60;;;13.77;;
42096;SDS011;27754;45.414;11.084;2023-12-04T11:11:46;28.63;;;13.95;;
42096;SDS011;27754;45.414;11.084;2023-12-04T11:14:21;25.48;;;15.48;;
42096;SDS011;27754;45.414;11.084;2023-12-04T11:16:53;23.85;;;15.32;;
42096;SDS011;27754;45.414;11.084;2023-12-04T11:22:22;27.52;;;14.50;;
42096;SDS011;27754;45.414;11.084;2023-12-04T11:24:52;31.40;;;14.25;;
42096;SDS011;27754;45.414;11.084;2023-12-04T11:27:19;30.33;;;14.65;;
42096;SDS011;27754;45.414;11.084;2023-12-04T11:29:47;24.27;;;13.60;;
42096;SDS011;27754;45.414;11.084;2023-12-04T11:32:16;20.42;;;12.48;;
42096;SDS011;27754;45.414;11.084;2023-12-04T11:34:47;21.33;;;13.32;;
42096;SDS011;27754;45.414;11.084;2023-12-04T11:37:15;30.25;;;16.25;;
42096;SDS011;27754;45.414;11.084;2023-12-04T11:39:45;21.35;;;13.07;;
42096;SDS011;27754;45.414;11.084;2023-12-04T11:42:18;19.85;;;12.25;;
42096;SDS011;27754;45.414;11.084;2023-12-04T11:44:57;20.25;;;11.63;;
42096;SDS011;27754;45.414;11.084;2023-12-04T11:47:30;23.88;;;12.63;;
42096;SDS011;27754;45.414;11.084;2023-12-04T11:49:59;17.90;;;12.18;;
42096;SDS011;27754;45.414;11.084;2023-12-04T11:52:33;19.70;;;12.45;;
42096;SDS011;27754;45.414;11.084;2023-12-04T11:55:03;19.10;;;12.15;;
42096;SDS011;27754;45.414;11.084;2023-12-04T11:57:34;20.92;;;11.60;;
42096;SDS011;27754;45.414;11.084;2023-12-04T12:02:39;22.45;;;13.32;;
42096;SDS011;27754;45.414;11.084;2023-12-04T12:05:27;28.10;;;14.45;;
42096;SDS011;27754;45.414;11.084;2023-12-04T12:07:55;16.63;;;11.27;;
42096;SDS011;27754;45.414;11.084;2023-12-04T12:10:23;20.55;;;12.30;;
42096;SDS011;27754;45.414;11.084;2023-12-04T12:12:50;21.85;;;12.27;;
42096;SDS011;27754;45.414;11.084;2023-12-04T12:15:19;20.45;;;11.75;;
42096;SDS011;27754;45.414;11.084;2023-12-04T12:17:46;21.48;;;12.68;;
42096;SDS011;27754;45.414;11.084;2023-12-04T12:20:13;21.33;;;12.65;;
42096;SDS011;27754;45.414;11.084;2023-12-04T12:22:41;27.67;;;13.48;;
42096;SDS011;27754;45.414;11.084;2023-12-04T12:25:10;24.13;;;12.27;;
42096;SDS011;27754;45.414;11.084;2023-12-04T12:27:38;21.55;;;12.85;;
42096;SDS011;27754;45.414;11.084;2023-12-04T12:30:06;19.25;;;12.85;;
42096;SDS011;27754;45.414;11.084;2023-12-04T12:32:34;19.00;;;12.30;;
42096;SDS011;27754;45.414;11.084;2023-12-04T12:35:02;20.50;;;11.95;;
42096;SDS011;27754;45.414;11.084;2023-12-04T12:37:34;21.15;;;12.70;;
42096;SDS011;27754;45.414;11.084;2023-12-04T12:40:01;20.40;;;11.15;;
42096;SDS011;27754;45.414;11.084;2023-12-04T12:42:31;19.70;;;12.27;;
42096;SDS011;27754;45.414;11.084;2023-12-04T12:45:00;19.48;;;12.15;;
42096;SDS011;27754;45.414;11.084;2023-12-04T12:47:30;21.95;;;13.30;;
42096;SDS011;27754;45.414;11.084;2023-12-04T12:49:57;20.63;;;13.05;;
42096;SDS011;27754;45.414;11.084;2023-12-04T12:52:27;20.48;;;12.63;;
42096;SDS011;27754;45.414;11.084;2023-12-04T12:54:54;19.75;;;12.20;;
42096;SDS011;27754;45.414;11.084;2023-12-04T12:57:21;18.55;;;12.00;;
42096;SDS011;27754;45.414;11.084;2023-12-04T12:59:49;21.77;;;13.63;;
42096;SDS011;27754;45.414;11.084;2023-12-04T13:02:16;18.95;;;11.88;;
42096;SDS011;27754;45.414;11.084;2023-12-04T13:04:43;26.67;;;13.40;;
42096;SDS011;27754;45.414;11.084;2023-12-04T13:07:11;21.63;;;12.13;;
42096;SDS011;27754;45.414;11.084;2023-12-04T13:09:38;21.92;;;12.25;;
42096;SDS011;27754;45.414;11.084;2023-12-04T13:12:05;22.85;;;13.30;;
42096;SDS011;27754;45.414;11.084;2023-12-04T13:14:33;22.10;;;12.07;;
42096;SDS011;27754;45.414;11.084;2023-12-04T13:17:04;19.30;;;12.43;;
42096;SDS011;27754;45.414;11.084;2023-12-04T13:19:31;18.88;;;12.25;;
42096;SDS011;27754;45.414;11.084;2023-12-04T13:22:01;23.55;;;13.13;;
42096;SDS011;27754;45.414;11.084;2023-12-04T13:24:28;21.05;;;12.07;;
42096;SDS011;27754;45.414;11.084;2023-12-04T13:26:55;19.58;;;12.80;;
42096;SDS011;27754;45.414;11.084;2023-12-04T13:29:22;18.90;;;11.18;;
42096;SDS011;27754;45.414;11.084;2023-12-04T13:31:49;22.65;;;12.57;;
42096;SDS011;27754;45.414;11.084;2023-12-04T13:34:17;18.00;;;12.18;;
42096;SDS011;27754;45.414;11.084;2023-12-04T13:36:44;21.83;;;12.40;;
42096;SDS011;27754;45.414;11.084;2023-12-04T13:39:11;18.38;;;11.50;;
42096;SDS011;27754;45.414;11.084;2023-12-04T13:41:49;23.27;;;13.45;;
42096;SDS011;27754;45.414;11.084;2023-12-04T13:44:35;20.05;;;12.38;;
42096;SDS011;27754;45.414;11.084;2023-12-04T13:47:02;20.55;;;12.60;;
42096;SDS011;27754;45.414;11.084;2023-12-04T13:49:29;21.38;;;12.93;;
42096;SDS011;27754;45.414;11.084;2023-12-04T13:51:56;18.27;;;11.77;;
42096;SDS011;27754;45.414;11.084;2023-12-04T13:54:24;20.23;;;12.80;;
42096;SDS011;27754;45.414;11.084;2023-12-04T13:57:08;19.83;;;13.18;;
42096;SDS011;27754;45.414;11.084;2023-12-04T13:59:39;19.80;;;13.20;;
42096;SDS011;27754;45.414;11.084;2023-12-04T14:02:06;25.10;;;14.23;;
42096;SDS011;27754;45.414;11.084;2023-12-04T14:04:37;24.70;;;13.65;;
42096;SDS011;27754;45.414;11.084;2023-12-04T14:07:06;26.13;;;13.02;;
42096;SDS011;27754;45.414;11.084;2023-12-04T14:09:38;23.25;;;13.98;;
42096;SDS011;27754;45.414;11.084;2023-12-04T14:12:06;21.65;;;13.32;;
42096;SDS011;27754;45.414;11.084;2023-12-04T14:14:34;26.33;;;13.43;;
42096;SDS011;27754;45.414;11.084;2023-12-04T14:17:01;23.65;;;14.07;;
42096;SDS011;27754;45.414;11.084;2023-12-04T14:19:31;22.02;;;12.65;;
42096;SDS011;27754;45.414;11.084;2023-12-04T14:21:58;24.75;;;12.38;;
42096;SDS011;27754;45.414;11.084;2023-12-04T14:24:25;22.20;;;12.43;;
42096;SDS011;27754;45.414;11.084;2023-12-04T14:26:52;31.42;;;12.82;;